KMCC

Mc Clellan Airfield Airport

Sacramento, California, USA
METAR KMCC 201735Z AUTO 19006KT 10SM CLR 20/07 A3004 RMK AO2
Observed Flight Rules
Oct-20 @ 17:35 UTC (27 minutes ago) Visual Flight Rules
Wind Visibility Clouds
190° at 6 knots 10 miles
  • Clear skies
Temperatures Readings
Current 20°C / 68°F
Dewpoint 7°C / 45°F
Humidity 43%
Altimeter 30.04" Hg
Pressure 1017 hPa
Elevation 23
METAR KMCC 201735Z AUTO 19006KT 10SM CLR 20/07 A3004 RMK AO2
Observed Flight Rules
Oct-20 @ 17:35 UTC
(27 minutes ago)
VFR
Wind Visibility
190° at 6 knots 10 miles
Clouds
  • Clear skies
Temperature Dewpoint
20°C / 68°F 7°C / 45°F
Humidity Altimeter Pressure
43% 30.04" Hg 1017 hPa